Time;durP1;ratioP1;P1;durP2;ratioP2;P2;SDS_P1;SDS_P2;PMS_P1;PMS_P2;Temp;Humidity;BMP_temperature;BMP_pressure;BME280_temperature;BME280_humidity;BME280_pressure;Samples;Min_cycle;Max_cycle;Signal;HPM_P1;HPM_P2
2023/11/04 00:02:04;;;;;;;22.00;12.10;;;;;;;14.12;93.55;98785.41;80758;1297;3051230;-73
2023/11/04 00:04:30;;;;;;;23.80;13.40;;;;;;;14.07;92.81;98787.69;82049;1297;3013196;-75
2023/11/04 00:06:57;;;;;;;27.30;15.10;;;;;;;13.86;93.75;98787.77;82035;1297;3011378;-73
2023/11/04 00:09:25;;;;;;;33.60;15.40;;;;;;;13.64;94.76;98781.33;80751;1295;3057166;-72
2023/11/04 00:11:52;;;;;;;22.70;12.50;;;;;;;13.45;96.25;98780.98;82041;1296;3018080;-72
2023/11/04 00:14:18;;;;;;;23.90;12.90;;;;;;;13.78;95.89;98771.70;82005;1297;3011392;-70
2023/11/04 00:16:46;;;;;;;25.70;13.60;;;;;;;13.98;94.27;98766.48;80783;1295;3026115;-75
2023/11/04 00:19:13;;;;;;;27.80;14.30;;;;;;;14.04;93.40;98763.02;82077;1295;3018370;-71
2023/11/04 00:21:41;;;;;;;24.10;13.90;;;;;;;13.82;94.39;98759.69;82041;1294;3011320;-71
2023/11/04 00:24:10;;;;;;;30.90;15.20;;;;;;;13.59;95.50;98759.56;80767;1294;3057990;-73
2023/11/04 00:26:37;;;;;;;23.40;12.60;;;;;;;13.36;97.30;98755.00;82026;1296;3018045;-70
2023/11/04 00:29:07;;;;;;;23.10;12.10;;;;;;;13.78;95.81;98752.86;82028;1297;3011567;-72
2023/11/04 00:31:35;;;;;;;26.70;13.20;;;;;;;14.10;93.97;98748.43;80780;1297;3051875;-69
2023/11/04 00:34:02;;;;;;;26.80;13.40;;;;;;;14.03;93.47;98744.77;82071;1296;3013107;-69
2023/11/04 00:36:30;;;;;;;29.80;14.90;;;;;;;13.84;94.36;98740.77;82020;1294;3011237;-74
2023/11/04 00:38:59;;;;;;;26.10;14.70;;;;;;;13.67;95.38;98734.83;80675;1295;3056208;-75
2023/11/04 00:41:25;;;;;;;27.60;12.80;;;;;;;13.48;96.44;98738.51;82063;1295;3013066;-73
2023/11/04 00:43:52;;;;;;;24.00;12.30;;;;;;;13.84;95.43;98734.58;82019;1295;3011491;-70
2023/11/04 00:46:21;;;;;;;22.80;13.00;;;;;;;14.13;93.72;98738.45;80763;1295;3051149;-74
2023/11/04 00:48:47;;;;;;;25.00;14.40;;;;;;;14.09;93.45;98739.11;82093;1297;3011354;-69
2023/11/04 00:51:14;;;;;;;28.40;13.70;;;;;;;13.92;94.16;98741.84;82047;1295;3011307;-74
2023/11/04 00:53:42;;;;;;;27.30;15.70;;;;;;;13.66;95.18;98744.90;80772;1295;3056027;-72
2023/11/04 00:56:08;;;;;;;22.30;12.10;;;;;;;13.41;96.79;98741.16;81951;1297;3018057;-74
2023/11/04 00:58:35;;;;;;;23.80;13.50;;;;;;;13.67;96.65;98738.33;82017;1296;3011357;-70
2023/11/04 01:01:06;;;;;;;28.00;13.80;;;;;;;13.89;95.22;98731.86;80768;1295;3026306;-72
2023/11/04 01:03:34;;;;;;;25.00;13.00;;;;;;;13.98;94.92;98724.61;82012;1294;3011610;-71
2023/11/04 01:06:02;;;;;;;33.30;15.00;;;;;;;13.80;95.42;98729.28;80752;1295;3026531;-73
2023/11/04 01:08:28;;;;;;;32.80;15.00;;;;;;;13.65;95.99;98743.26;82077;1294;3012854;-71
2023/11/04 01:10:54;;;;;;;26.20;12.40;;;;;;;13.37;98.02;98747.34;82071;1294;3011353;-74
2023/11/04 01:13:23;;;;;;;25.60;13.20;;;;;;;13.74;97.10;98748.33;80746;1295;3026184;-69
2023/11/04 01:15:51;;;;;;;25.80;13.40;;;;;;;13.98;95.44;98755.60;82045;1296;3013175;-72
2023/11/04 01:18:19;;;;;;;32.20;14.50;;;;;;;14.09;94.88;98755.14;82032;1294;3011299;-72
2023/11/04 01:20:47;;;;;;;27.00;13.90;;;;;;;13.90;95.21;98755.23;80761;1295;3069858;-69
2023/11/04 01:23:13;;;;;;;24.90;14.20;;;;;;;13.69;95.83;98755.20;82061;1294;3012998;-72
2023/11/04 01:25:40;;;;;;;23.20;12.60;;;;;;;13.56;97.04;98743.77;82034;1294;3011307;-70
2023/11/04 01:28:07;;;;;;;29.30;13.10;;;;;;;13.87;96.27;98742.05;80749;1294;3025567;-72
2023/11/04 01:30:34;;;;;;;28.10;13.80;;;;;;;14.14;94.32;98736.09;81947;1300;3013136;-74
2023/11/04 01:33:01;;;;;;;30.30;13.80;;;;;;;14.15;94.26;98741.07;82057;1294;3011266;-74
2023/11/04 01:35:28;;;;;;;32.70;15.90;;;;;;;13.96;94.86;98744.15;80785;1294;3026367;-72
2023/11/04 01:37:55;;;;;;;28.00;15.90;;;;;;;13.61;96.88;98746.05;82055;1294;3018249;-70
2023/11/04 01:40:21;;;;;;;24.60;12.70;;;;;;;13.51;97.65;98746.57;82037;1294;3011110;-74
2023/11/04 01:42:49;;;;;;;24.70;13.60;;;;;;;13.81;97.26;98745.77;80742;1294;3026880;-74
2023/11/04 01:45:16;;;;;;;22.50;13.90;;;;;;;14.03;95.39;98748.06;82054;1297;3012903;-72
2023/11/04 01:47:43;;;;;;;29.00;14.90;;;;;;;13.96;95.32;98746.42;82028;1295;3011260;-73
2023/11/04 01:50:11;;;;;;;25.40;14.40;;;;;;;13.71;96.52;98736.17;80764;1295;3025829;-71
2023/11/04 01:52:38;;;;;;;26.80;13.90;;;;;;;13.42;98.12;98731.65;82043;1295;3017952;-75
2023/11/04 01:55:09;;;;;;;22.60;11.90;;;;;;;13.26;99.75;98726.42;82033;1294;3011228;-75
2023/11/04 01:57:37;;;;;;;24.20;13.50;;;;;;;13.63;98.98;98723.84;80775;1298;3054039;-74
2023/11/04 02:00:08;;;;;;;25.60;14.30;;;;;;;13.99;96.56;98722.77;82049;1299;3012717;-74
2023/11/04 02:02:42;;;;;;;28.00;14.50;;;;;;;13.89;96.35;98728.67;80792;1297;3052482;-74
2023/11/04 02:05:08;;;;;;;29.90;14.70;;;;;;;13.78;96.91;98727.52;82034;1295;3018132;-73
2023/11/04 02:07:35;;;;;;;25.90;14.60;;;;;;;13.64;97.68;98725.23;82032;1294;3011261;-72
2023/11/04 02:10:03;;;;;;;21.20;11.90;;;;;;;13.45;98.79;98723.10;80781;1295;3026277;-71
2023/11/04 02:12:29;;;;;;;21.40;11.80;;;;;;;13.77;98.26;98716.02;81959;1297;3017951;-69
2023/11/04 02:14:56;;;;;;;19.20;11.20;;;;;;;14.16;95.97;98717.39;82033;1294;3011035;-73
2023/11/04 02:17:24;;;;;;;27.00;13.60;;;;;;;14.04;95.36;98716.15;80717;1296;3026455;-74
2023/11/04 02:19:51;;;;;;;27.10;13.70;;;;;;;13.72;97.29;98730.70;82038;1295;3018821;-75
2023/11/04 02:22:17;;;;;;;28.10;14.60;;;;;;;13.67;97.82;98737.45;82020;1294;3011467;-71
2023/11/04 02:24:45;;;;;;;24.50;13.60;;;;;;;13.43;99.24;98732.38;80767;1294;3027447;-72
2023/11/04 02:27:12;;;;;;;23.70;12.70;;;;;;;13.77;98.69;98728.17;82068;1295;3012949;-71
2023/11/04 02:29:39;;;;;;;28.50;12.40;;;;;;;14.07;96.58;98731.15;82014;1294;3011423;-74
2023/11/04 02:32:07;;;;;;;25.70;13.10;;;;;;;14.08;95.90;98735.37;80699;1297;3052508;-77
2023/11/04 02:34:33;;;;;;;26.00;13.80;;;;;;;13.93;96.29;98739.23;82051;1295;3012982;-70
2023/11/04 02:37:00;;;;;;;30.60;14.60;;;;;;;13.70;97.65;98742.13;82041;1294;3011182;-73
2023/11/04 02:39:27;;;;;;;22.40;11.90;;;;;;;13.54;99.08;98736.77;80674;1296;3027752;-72
2023/11/04 02:41:54;;;;;;;28.70;13.00;;;;;;;13.90;98.03;98735.81;82058;1295;3012487;-75
2023/11/04 02:44:20;;;;;;;22.20;13.20;;;;;;;14.16;95.95;98735.71;82036;1294;3011287;-78
2023/11/04 02:46:49;;;;;;;30.10;13.10;;;;;;;14.20;95.62;98733.75;80770;1297;3026210;-74
2023/11/04 02:49:15;;;;;;;22.10;12.50;;;;;;;14.16;95.82;98732.87;82054;1297;3012680;-73
2023/11/04 02:51:42;;;;;;;26.20;13.60;;;;;;;13.85;96.57;98733.63;82035;1295;3011225;-72
2023/11/04 02:54:10;;;;;;;19.20;11.60;;;;;;;13.57;98.54;98735.67;80753;1297;3048449;-73
2023/11/04 02:56:36;;;;;;;20.10;11.30;;;;;;;13.80;98.83;98738.47;82056;1297;3013086;-73
2023/11/04 02:59:03;;;;;;;23.20;12.70;;;;;;;14.29;96.59;98739.84;81993;1296;3011228;-73
2023/11/04 03:01:31;;;;;;;20.70;11.90;;;;;;;14.27;95.71;98737.28;80749;1299;3026528;-75
2023/11/04 03:04:01;;;;;;;21.10;11.90;;;;;;;14.08;96.16;98732.71;82072;1296;3013023;-74
2023/11/04 03:06:29;;;;;;;23.00;12.30;;;;;;;13.79;97.31;98733.24;81463;1294;3011285;-73
2023/11/04 03:08:56;;;;;;;20.70;10.60;;;;;;;13.67;98.76;98728.27;82035;1296;3012907;-74
2023/11/04 03:11:23;;;;;;;20.10;11.20;;;;;;;14.04;97.84;98732.35;82032;1296;3011402;-75
2023/11/04 03:13:51;;;;;;;18.20;11.00;;;;;;;14.37;95.48;98735.10;80767;1298;3026168;-74
2023/11/04 03:16:20;;;;;;;20.70;11.70;;;;;;;14.27;95.29;98734.21;82039;1296;3012985;-72
2023/11/04 03:18:49;;;;;;;21.60;12.50;;;;;;;14.22;95.77;98738.89;81515;1297;3010897;-72
2023/11/04 03:21:16;;;;;;;20.60;12.60;;;;;;;14.02;96.52;98739.02;82060;1296;3017933;-74
2023/11/04 03:23:44;;;;;;;16.80;10.20;;;;;;;13.89;97.55;98734.33;82038;1295;3011450;-72
2023/11/04 03:26:13;;;;;;;16.90;10.70;;;;;;;14.25;96.27;98727.73;80764;1295;3048944;-74
2023/11/04 03:28:40;;;;;;;21.10;11.70;;;;;;;14.59;94.01;98721.75;82053;1297;3013111;-71
2023/11/04 03:31:06;;;;;;;19.50;10.90;;;;;;;14.62;93.92;98717.61;82018;1297;3011194;-72
2023/11/04 03:33:34;;;;;;;20.70;11.60;;;;;;;14.42;94.36;98710.02;80694;1297;3052724;-71
2023/11/04 03:36:01;;;;;;;19.10;11.30;;;;;;;14.12;95.66;98697.70;82044;1297;3012704;-72
2023/11/04 03:38:27;;;;;;;15.20;8.60;;;;;;;13.95;96.72;98691.57;82011;1296;3011127;-71
2023/11/04 03:40:55;;;;;;;14.50;9.70;;;;;;;14.25;96.37;98687.41;80778;1295;3026709;-70
2023/11/04 03:43:22;;;;;;;15.20;10.50;;;;;;;14.56;94.68;98695.52;82037;1295;3018874;-77
2023/11/04 03:45:49;;;;;;;17.90;10.80;;;;;;;14.52;94.05;98694.52;81997;1294;3011120;-70
2023/11/04 03:48:17;;;;;;;17.90;10.60;;;;;;;14.33;95.06;98693.71;80769;1300;3026385;-76
2023/11/04 03:50:43;;;;;;;17.60;11.50;;;;;;;14.10;96.31;98697.83;81969;1298;3018029;-74
2023/11/04 03:53:10;;;;;;;13.70;9.20;;;;;;;13.98;97.59;98700.11;82003;1298;3011213;-73
2023/11/04 03:55:38;;;;;;;12.60;8.40;;;;;;;14.27;96.48;98698.80;80738;1297;3026128;-70
2023/11/04 03:58:04;;;;;;;16.90;10.00;;;;;;;14.53;95.00;98701.98;82048;1298;3018223;-72
2023/11/04 04:00:32;;;;;;;18.50;10.90;;;;;;;14.45;94.87;98696.88;81978;1296;3011085;-69
2023/11/04 04:03:00;;;;;;;16.90;11.10;;;;;;;14.13;96.23;98699.33;80772;1299;3052917;-73
2023/11/04 04:05:26;;;;;;;18.90;11.60;;;;;;;13.99;97.43;98701.95;82032;1298;3012771;-69
2023/11/04 04:07:54;;;;;;;13.20;8.80;;;;;;;13.81;98.73;98698.56;81981;1296;3011327;-73
2023/11/04 04:10:21;;;;;;;14.30;9.40;;;;;;;14.14;98.10;98691.89;80691;1296;3025661;-72
2023/11/04 04:12:48;;;;;;;18.70;11.10;;;;;;;14.52;95.59;98696.42;81953;1297;3013174;-69
2023/11/04 04:15:14;;;;;;;20.80;11.60;;;;;;;14.54;95.02;98698.19;81972;1296;3011647;-70
2023/11/04 04:17:42;;;;;;;18.80;11.60;;;;;;;14.31;95.88;98690.92;80695;1296;3025769;-70
2023/11/04 04:20:13;;;;;;;21.90;12.00;;;;;;;13.97;97.23;98685.44;81983;1297;3013200;-68
2023/11/04 04:22:41;;;;;;;17.50;10.30;;;;;;;13.79;99.01;98684.67;80695;1296;3055561;-68
2023/11/04 04:25:08;;;;;;;18.60;10.50;;;;;;;14.22;98.26;98689.73;81986;1297;3013043;-70
2023/11/04 04:27:38;;;;;;;21.70;10.50;;;;;;;14.38;96.61;98696.14;81920;1295;3011175;-72
2023/11/04 04:30:06;;;;;;;18.70;10.40;;;;;;;14.47;95.68;98695.63;80748;1300;3052265;-74
2023/11/04 04:32:33;;;;;;;20.10;11.40;;;;;;;14.15;96.75;98697.98;82081;1295;3012324;-71
2023/11/04 04:34:59;;;;;;;20.60;11.30;;;;;;;13.98;98.21;98706.76;82042;1295;3011180;-72
2023/11/04 04:37:30;;;;;;;18.30;10.00;;;;;;;13.84;99.32;98718.41;80791;1294;3055920;-70
2023/11/04 04:39:56;;;;;;;21.90;10.30;;;;;;;14.17;98.60;98717.97;82048;1295;3011300;-72
2023/11/04 04:44:19;;;;;;;17.50;10.70;;;;;;;14.37;96.97;98715.52;80252;1299;3013371;-72
2023/11/04 04:46:46;;;;;;;24.20;11.50;;;;;;;14.26;97.11;98716.19;79288;1301;3013302;-70
2023/11/04 04:49:12;;;;;;;18.10;11.30;;;;;;;14.08;97.87;98721.98;79313;1300;3011944;-72
2023/11/04 04:51:40;;;;;;;17.10;10.70;;;;;;;13.86;99.46;98726.17;78177;1301;3025158;-73
2023/11/04 04:54:08;;;;;;;16.40;9.90;;;;;;;14.20;99.34;98727.63;79189;1304;3013629;-70
2023/11/04 04:56:34;;;;;;;23.60;11.80;;;;;;;14.59;97.01;98732.11;77162;1301;3186563;-69
2023/11/04 04:59:02;;;;;;;24.60;11.40;;;;;;;14.37;97.05;98729.65;78184;1298;3049694;-73
2023/11/04 05:01:30;;;;;;;21.60;11.70;;;;;;;14.16;98.30;98732.89;79500;1301;3013548;-71
2023/11/04 05:03:57;;;;;;;19.40;10.80;;;;;;;13.97;99.39;98731.01;79422;1301;3011599;-70
2023/11/04 05:06:25;;;;;;;16.10;9.90;;;;;;;13.82;100.00;98734.10;78235;1298;3051690;-70
2023/11/04 05:08:51;;;;;;;18.70;10.20;;;;;;;14.13;99.82;98735.09;79432;1298;3012706;-71
2023/11/04 05:11:18;;;;;;;19.60;11.10;;;;;;;14.43;98.00;98728.56;79432;1299;3011559;-70
2023/11/04 05:13:46;;;;;;;19.80;10.70;;;;;;;14.46;97.46;98731.21;78212;1298;3027696;-73
2023/11/04 05:16:13;;;;;;;19.10;10.80;;;;;;;14.39;97.70;98725.56;79582;1296;3013580;-75
2023/11/04 05:18:39;;;;;;;20.00;11.20;;;;;;;14.07;98.88;98721.90;79618;1298;3011674;-71
2023/11/04 05:21:07;;;;;;;15.20;9.00;;;;;;;13.90;100.00;98722.65;78429;1301;3026187;-70
2023/11/04 05:23:33;;;;;;;16.00;9.80;;;;;;;14.31;99.73;98723.81;79541;1298;3018552;-73
2023/11/04 05:26:00;;;;;;;19.30;11.10;;;;;;;14.65;97.53;98722.13;79469;1297;3013562;-74
2023/11/04 05:28:34;;;;;;;21.80;12.10;;;;;;;14.55;97.20;98721.24;78426;1298;3026650;-71
2023/11/04 05:31:00;;;;;;;20.40;10.70;;;;;;;14.35;98.35;98714.90;79544;1299;3011762;-70
2023/11/04 05:33:31;;;;;;;21.10;11.10;;;;;;;14.06;99.78;98716.66;78199;1299;3050187;-74
2023/11/04 05:35:57;;;;;;;15.10;9.20;;;;;;;14.01;100.00;98726.14;79653;1301;3015478;-72
2023/11/04 05:38:27;;;;;;;17.80;10.20;;;;;;;14.38;99.78;98731.18;79431;1300;3011837;-72
2023/11/04 05:40:55;;;;;;;17.10;10.80;;;;;;;14.63;98.14;98728.13;78388;1301;3049857;-72
2023/11/04 05:43:21;;;;;;;18.50;10.20;;;;;;;14.73;97.52;98736.73;79503;1298;3013231;-69
2023/11/04 05:45:49;;;;;;;23.00;11.80;;;;;;;14.62;97.57;98743.85;79587;1301;3011675;-71
2023/11/04 05:48:19;;;;;;;17.20;9.50;;;;;;;14.34;98.86;98751.75;78246;1300;3052352;-71
2023/11/04 05:50:46;;;;;;;18.90;10.10;;;;;;;14.66;98.66;98767.86;79703;1301;3012880;-69
2023/11/04 05:53:14;;;;;;;19.80;10.10;;;;;;;14.91;96.50;98784.15;79615;1299;3011748;-69
2023/11/04 05:55:42;;;;;;;20.50;11.50;;;;;;;14.77;96.43;98778.52;78303;1297;3050754;-71
2023/11/04 05:58:09;;;;;;;19.50;11.10;;;;;;;14.65;96.93;98768.22;79445;1298;3018492;-72
2023/11/04 06:00:37;;;;;;;20.30;11.10;;;;;;;14.38;98.27;98773.97;79424;1301;3011877;-70
2023/11/04 06:03:06;;;;;;;16.50;9.10;;;;;;;14.23;99.95;98777.78;78392;1298;3049374;-76
2023/11/04 06:05:33;;;;;;;18.80;10.80;;;;;;;14.64;98.70;98775.83;79423;1301;3013089;-71
2023/11/04 06:08:01;;;;;;;20.10;11.00;;;;;;;14.77;97.05;98780.13;79628;1301;3011874;-70
2023/11/04 06:10:28;;;;;;;21.70;12.60;;;;;;;14.54;97.83;98779.25;78296;1299;3052168;-72
2023/11/04 06:12:55;;;;;;;19.80;11.60;;;;;;;14.30;99.77;98777.64;79422;1301;3013416;-72
2023/11/04 06:15:21;;;;;;;17.60;10.30;;;;;;;14.17;100.00;98775.55;79415;1299;3011670;-71
2023/11/04 06:17:49;;;;;;;17.60;10.30;;;;;;;14.47;99.85;98776.05;78257;1298;3027454;-71
2023/11/04 06:20:18;;;;;;;19.00;10.50;;;;;;;14.80;97.91;98782.52;79435;1299;3012651;-71
2023/11/04 06:22:44;;;;;;;17.90;10.40;;;;;;;14.91;97.26;98789.24;79363;1301;3011650;-75
2023/11/04 06:25:12;;;;;;;17.50;11.10;;;;;;;14.71;97.65;98785.20;78273;1298;3051880;-70
2023/11/04 06:27:38;;;;;;;21.60;10.70;;;;;;;14.56;98.62;98786.11;79415;1298;3013068;-75
2023/11/04 06:30:06;;;;;;;19.00;10.30;;;;;;;14.46;99.25;98782.98;79426;1298;3011776;-72
2023/11/04 06:32:35;;;;;;;23.30;10.80;;;;;;;14.84;98.49;98782.14;78284;1301;3050327;-71
2023/11/04 06:35:02;;;;;;;20.30;10.80;;;;;;;15.15;96.37;98783.92;79441;1301;3012834;-73
2023/11/04 06:37:28;;;;;;;22.40;11.50;;;;;;;15.09;96.12;98777.73;79434;1298;3011903;-70
2023/11/04 06:39:57;;;;;;;18.80;11.00;;;;;;;14.89;97.12;98784.19;78350;1297;3026104;-72
2023/11/04 06:42:26;;;;;;;21.00;10.90;;;;;;;14.82;97.73;98784.22;79384;1298;3013068;-70
2023/11/04 06:44:56;;;;;;;16.20;9.20;;;;;;;14.68;98.70;98786.68;78953;1299;3011625;-71
2023/11/04 06:47:23;;;;;;;22.40;10.60;;;;;;;15.10;97.46;98788.30;79481;1299;3012681;-74
2023/11/04 06:49:49;;;;;;;18.30;10.40;;;;;;;15.25;95.97;98786.55;79435;1300;3012977;-70
2023/11/04 06:52:17;;;;;;;18.20;10.30;;;;;;;15.20;96.12;98787.32;78288;1301;3052617;-70
2023/11/04 06:54:44;;;;;;;20.20;10.40;;;;;;;15.10;96.68;98783.70;79424;1300;3012947;-72
2023/11/04 06:57:10;;;;;;;19.50;10.50;;;;;;;14.85;97.59;98783.59;79481;1298;3011516;-70
2023/11/04 06:59:40;;;;;;;17.60;9.40;;;;;;;14.62;99.73;98789.20;78243;1301;3027014;-73
2023/11/04 07:02:07;;;;;;;19.60;9.70;;;;;;;15.16;98.55;98786.66;79459;1301;3012891;-73
2023/11/04 07:04:34;;;;;;;19.50;8.90;;;;;;;15.34;96.12;98785.59;79505;1302;3013322;-70
2023/11/04 07:07:02;;;;;;;19.70;9.10;;;;;;;15.29;95.85;98789.18;78331;1299;3052134;-72
2023/11/04 07:09:33;;;;;;;17.60;9.20;;;;;;;15.01;96.97;98787.31;79488;1298;3013260;-71
2023/11/04 07:12:00;;;;;;;20.60;9.70;;;;;;;14.80;98.16;98783.23;78322;1300;3055742;-74
2023/11/04 07:14:27;;;;;;;16.80;8.10;;;;;;;14.62;99.60;98777.13;79434;1300;3013396;-72
2023/11/04 07:16:55;;;;;;;18.70;8.10;;;;;;;15.05;98.58;98779.16;79584;1295;3013086;-72
2023/11/04 07:19:23;;;;;;;14.20;7.90;;;;;;;15.29;96.79;98779.32;78256;1301;3055032;-71
2023/11/04 07:21:50;;;;;;;16.20;8.70;;;;;;;15.25;96.29;98779.16;79550;1298;3013263;-71
2023/11/04 07:24:18;;;;;;;18.80;9.20;;;;;;;15.04;97.22;98769.36;79496;1295;3011476;-71
2023/11/04 07:26:46;;;;;;;14.60;7.60;;;;;;;15.02;98.02;98769.55;78224;1296;3058003;-71
2023/11/04 07:29:13;;;;;;;16.00;8.30;;;;;;;15.28;97.25;98768.11;79691;1296;3013456;-73
2023/11/04 07:31:39;;;;;;;17.00;8.90;;;;;;;15.52;95.53;98772.99;79469;1301;3011606;-70
2023/11/04 07:34:07;;;;;;;16.80;9.00;;;;;;;15.53;94.98;98761.77;78471;1295;3026240;-70
2023/11/04 07:36:33;;;;;;;17.10;9.40;;;;;;;15.29;96.16;98760.44;79631;1296;3013534;-69
2023/11/04 07:39:02;;;;;;;19.50;9.10;;;;;;;15.13;97.30;98764.92;79506;1295;3011941;-70
2023/11/04 07:41:30;;;;;;;17.30;8.40;;;;;;;14.96;98.80;98753.56;78285;1300;3056675;-72
2023/11/04 07:44:28;;;;;;;13.90;7.90;;;;;;;15.48;97.12;98748.10;80138;1300;3013280;-71
2023/11/04 07:46:59;;;;;;;19.30;8.30;;;;;;;15.73;94.98;98741.80;79338;1304;3013340;-68
2023/11/04 07:49:27;;;;;;;18.40;9.90;;;;;;;15.67;95.04;98739.66;78184;1301;3051836;-71
2023/11/04 07:51:54;;;;;;;20.30;9.90;;;;;;;15.38;96.07;98741.13;79440;1304;3020860;-72
2023/11/04 07:54:20;;;;;;;17.50;8.00;;;;;;;15.28;97.52;98745.73;79443;1303;3013342;-71
2023/11/04 07:56:48;;;;;;;16.80;9.10;;;;;;;15.51;96.89;98747.98;75456;1300;3342324;-72
2023/11/04 07:59:14;;;;;;;22.10;9.60;;;;;;;15.69;95.45;98752.02;82034;1296;3012674;-70
2023/11/04 08:01:41;;;;;;;16.90;9.00;;;;;;;15.65;94.91;98754.30;81967;1297;3011492;-72
2023/11/04 08:04:09;;;;;;;19.90;10.30;;;;;;;15.55;95.57;98752.55;80718;1297;3026714;-71
2023/11/04 08:06:36;;;;;;;18.50;9.40;;;;;;;15.34;96.58;98760.68;81976;1296;3012752;-70
2023/11/04 08:09:02;;;;;;;13.90;8.00;;;;;;;15.18;97.95;98749.31;82025;1295;3011391;-73
2023/11/04 08:11:30;;;;;;;16.10;8.80;;;;;;;15.56;96.99;98748.23;80763;1295;3056731;-73
2023/11/04 08:13:57;;;;;;;15.40;8.90;;;;;;;15.81;95.22;98741.60;82053;1295;3012304;-72
2023/11/04 08:16:23;;;;;;;17.10;8.60;;;;;;;15.78;94.73;98739.02;82001;1297;3011419;-73
2023/11/04 08:18:51;;;;;;;14.30;8.30;;;;;;;15.74;95.23;98744.48;80802;1295;3025723;-70
2023/11/04 08:21:17;;;;;;;16.40;8.70;;;;;;;15.71;95.69;98749.39;82095;1295;3018417;-72
2023/11/04 08:23:44;;;;;;;15.40;7.70;;;;;;;15.56;96.43;98741.00;82047;1295;3011427;-73
2023/11/04 08:26:12;;;;;;;13.90;7.80;;;;;;;15.85;95.83;98728.30;80755;1297;3026043;-71
2023/11/04 08:28:38;;;;;;;17.40;7.80;;;;;;;16.16;93.95;98720.05;82034;1295;3018562;-71
2023/11/04 08:31:05;;;;;;;17.10;7.80;;;;;;;16.18;93.60;98715.52;82023;1295;3011462;-72
2023/11/04 08:33:33;;;;;;;14.30;8.30;;;;;;;15.99;94.33;98713.05;80737;1297;3017988;-69
2023/11/04 08:36:00;;;;;;;16.70;8.00;;;;;;;15.89;95.30;98710.98;82035;1296;3012625;-69
2023/11/04 08:38:26;;;;;;;14.90;6.70;;;;;;;16.20;94.26;98713.73;81968;1295;3011325;-70
2023/11/04 08:40:54;;;;;;;13.20;7.40;;;;;;;16.36;92.69;98711.13;80746;1295;3017351;-70
2023/11/04 08:43:20;;;;;;;13.70;7.80;;;;;;;16.27;92.70;98717.92;82003;1295;3018625;-71
2023/11/04 08:45:47;;;;;;;16.00;8.60;;;;;;;16.11;93.44;98719.27;81973;1296;3011435;-69
2023/11/04 08:48:15;;;;;;;17.40;7.80;;;;;;;15.96;94.98;98719.33;80736;1297;3027753;-69
2023/11/04 08:50:43;;;;;;;16.40;7.60;;;;;;;16.30;93.61;98712.73;82013;1297;3013196;-72
2023/11/04 08:53:09;;;;;;;16.10;7.70;;;;;;;16.37;92.78;98700.75;81982;1296;3011591;-75
2023/11/04 08:55:37;;;;;;;14.50;7.50;;;;;;;16.36;92.81;98698.70;80719;1296;3056541;-77
2023/11/04 08:58:04;;;;;;;17.60;8.20;;;;;;;16.13;94.17;98700.73;81989;1296;3018756;-77
2023/11/04 09:00:30;;;;;;;15.10;8.40;;;;;;;16.01;94.98;98691.09;81934;1296;3011425;-77
2023/11/04 09:03:01;;;;;;;10.30;6.00;;;;;;;15.86;96.17;98692.87;80712;1297;3026341;-77
2023/11/04 09:05:28;;;;;;;14.10;6.40;;;;;;;16.24;95.08;98688.92;81985;1298;3011495;-79
2023/11/04 09:07:57;;;;;;;12.80;6.80;;;;;;;16.69;92.90;98687.23;81459;1296;3011061;-74
2023/11/04 09:10:23;;;;;;;15.00;6.80;;;;;;;16.57;92.27;98682.94;81988;1296;3018684;-76
2023/11/04 09:12:50;;;;;;;13.60;7.20;;;;;;;16.49;92.94;98687.01;81968;1296;3011476;-78
2023/11/04 09:15:18;;;;;;;16.50;7.20;;;;;;;16.24;94.11;98679.73;80711;1296;3026250;-76
2023/11/04 09:17:44;;;;;;;13.90;6.20;;;;;;;16.21;94.64;98677.60;81950;1297;3018240;-76
2023/11/04 09:20:11;;;;;;;12.50;6.00;;;;;;;16.63;93.51;98668.25;81975;1296;3011299;-76
2023/11/04 09:22:39;;;;;;;15.00;6.60;;;;;;;17.03;91.12;98664.13;80737;1296;3026549;-78
2023/11/04 09:25:06;;;;;;;15.00;6.30;;;;;;;16.96;90.68;98657.16;81977;1296;3018618;-77
2023/11/04 09:27:32;;;;;;;12.50;6.50;;;;;;;17.10;90.51;98656.54;81954;1296;3011290;-77
2023/11/04 09:30:00;;;;;;;16.90;7.10;;;;;;;17.02;90.59;98658.73;80740;1296;3026656;-77
2023/11/04 09:32:27;;;;;;;8.40;4.90;;;;;;;16.83;90.81;98655.94;82006;1297;3012717;-77
2023/11/04 09:34:53;;;;;;;14.90;5.20;;;;;;;17.18;89.72;98645.25;81944;1297;3011149;-69
2023/11/04 09:37:21;;;;;;;10.20;5.20;;;;;;;17.45;87.61;98642.66;80686;1297;3026601;-70
2023/11/04 09:39:48;;;;;;;16.20;5.30;;;;;;;17.46;87.66;98643.46;81976;1297;3012485;-70
2023/11/04 09:42:14;;;;;;;10.70;5.20;;;;;;;17.25;88.15;98640.98;81927;1298;3011536;-68
2023/11/04 09:44:42;;;;;;;11.50;5.50;;;;;;;17.09;89.09;98646.67;80669;1297;3025325;-71
2023/11/04 09:47:09;;;;;;;8.20;4.50;;;;;;;17.01;89.50;98643.77;81928;1297;3012471;-71
2023/11/04 09:49:36;;;;;;;7.80;3.90;;;;;;;17.40;88.14;98634.57;81939;1297;3011420;-70
2023/11/04 09:52:08;;;;;;;8.80;4.00;;;;;;;17.70;86.03;98624.17;80684;1297;3027317;-72
2023/11/04 09:54:36;;;;;;;10.90;4.30;;;;;;;17.57;85.60;98626.39;81864;1297;3011257;-73
2023/11/04 09:57:04;;;;;;;10.00;4.40;;;;;;;17.37;86.86;98624.44;80640;1297;3056240;-70
2023/11/04 09:59:32;;;;;;;7.60;4.10;;;;;;;17.33;87.32;98623.94;81962;1297;3018655;-70
2023/11/04 10:01:58;;;;;;;9.20;4.10;;;;;;;17.04;88.28;98621.20;82029;1294;3011344;-70
2023/11/04 10:04:26;;;;;;;7.20;3.10;;;;;;;17.11;88.39;98618.00;80799;1298;3052008;-69
2023/11/04 10:06:53;;;;;;;10.00;3.60;;;;;;;17.61;86.99;98617.71;82162;1293;3018558;-71
2023/11/04 10:09:19;;;;;;;8.10;3.50;;;;;;;18.14;84.39;98615.74;82111;1294;3011192;-71
2023/11/04 10:11:47;;;;;;;9.10;3.50;;;;;;;18.21;83.44;98615.52;80798;1295;3026767;-72
2023/11/04 10:14:14;;;;;;;15.20;5.00;;;;;;;18.17;83.94;98608.35;82098;1294;3011151;-73
2023/11/04 10:16:41;;;;;;;10.60;3.50;;;;;;;17.97;84.50;98610.41;82123;1294;3011377;-72
2023/11/04 10:19:08;;;;;;;7.30;3.80;;;;;;;17.77;84.92;98604.50;80697;1296;3051627;-74
2023/11/04 10:21:46;;;;;;;7.80;2.40;;;;;;;17.63;86.31;98595.02;82133;1295;3012650;-72
2023/11/04 10:24:15;;;;;;;10.10;2.90;;;;;;;18.00;84.94;98587.44;80752;1294;3050943;-72
2023/11/04 10:26:44;;;;;;;10.60;3.20;;;;;;;18.24;83.66;98586.49;82128;1294;3012333;-73
2023/11/04 10:29:10;;;;;;;10.00;4.20;;;;;;;18.26;83.60;98577.33;82076;1294;3011180;-74
2023/11/04 10:31:39;;;;;;;13.40;4.30;;;;;;;18.11;84.41;98577.50;80850;1294;3049729;-76
2023/11/04 10:34:06;;;;;;;9.80;3.70;;;;;;;17.92;85.42;98573.35;82015;1297;3013156;-69
2023/11/04 10:36:32;;;;;;;6.20;3.60;;;;;;;17.74;86.61;98573.85;82106;1294;3011148;-71
2023/11/04 10:39:05;;;;;;;6.50;2.60;;;;;;;17.62;87.48;98570.14;80816;1294;3050343;-71
2023/11/04 10:41:44;;;;;;;7.50;2.60;;;;;;;18.08;86.47;98577.09;82085;1295;3011460;-73
2023/11/04 10:44:15;;;;;;;12.30;3.20;;;;;;;18.40;84.97;98584.34;80830;1294;3049069;-72
2023/11/04 10:46:43;;;;;;;10.40;3.70;;;;;;;18.39;84.63;98581.05;82115;1294;3011442;-72
2023/11/04 10:49:13;;;;;;;8.40;3.40;;;;;;;18.14;85.92;98570.09;80850;1294;3026447;-72
2023/11/04 10:51:44;;;;;;;9.20;3.60;;;;;;;17.91;87.16;98570.36;82093;1294;3012345;-69
2023/11/04 10:54:18;;;;;;;6.60;3.40;;;;;;;17.78;88.34;98567.39;80747;1299;3051837;-70
2023/11/04 10:56:50;;;;;;;6.60;3.10;;;;;;;17.61;89.81;98559.61;81926;1297;3011302;-71
2023/11/04 10:59:43;;;;;;;8.60;3.10;;;;;;;18.11;88.25;98564.17;80799;1294;3051212;-70
2023/11/04 11:02:12;;;;;;;9.20;3.20;;;;;;;18.45;86.06;98559.81;80855;1294;3056793;-71
2023/11/04 11:04:40;;;;;;;9.60;3.90;;;;;;;18.43;86.26;98559.17;82021;1294;3018090;-73
2023/11/04 11:07:06;;;;;;;9.80;3.60;;;;;;;18.28;86.96;98561.96;81985;1297;3011092;-68
2023/11/04 11:09:34;;;;;;;10.50;4.00;;;;;;;18.11;88.03;98563.04;80863;1294;3051915;-71